Normed Antwerpen — V2DG9 — position and weather

sailwx.info

Track history (hours):
 
Tides and Currents Weather Stations Pressure Air Temp Water Temp Dewpoint Dewpoint Depression Visibility Wind Speed Wind Dir Waves Ship Positions

Normed Antwerpen

Last reported at 2017-Mar-24 19:32 UTC. Time now 2017-Mar-24 20:07 UTC.
Position N 53°06' E 008°44'.

Length 130 m; draft 6.2 m.

Type: Ship. MMSI: 305210993.

Date/timePositionNaut miles runAvg speedWind from/ knotsBaromVisibWave heightAir tempDewpointWater temp
2017-Mar-24 19:32N 53°06' E 008°44'0 0.0
2017-Mar-24 18:31N 53°06' E 008°44'0 0.0
2017-Mar-24 17:31N 53°06' E 008°44'0 0.0
2017-Mar-24 16:33N 53°06' E 008°44'0 0.0
2017-Mar-24 15:33N 53°06' E 008°44'0 0.0
2017-Mar-24 14:33N 53°06' E 008°44'0 0.0
2017-Mar-24 13:32N 53°06' E 008°44'0 0.0
2017-Mar-24 12:32N 53°06' E 008°44'0 0.0
2017-Mar-24 11:31N 53°06' E 008°44'0 0.0
2017-Mar-24 10:31N 53°06' E 008°44'0 0.0
2017-Mar-24 09:33N 53°06' E 008°44'0 0.0
2017-Mar-24 08:33N 53°06' E 008°44'0 0.0
2017-Mar-24 07:29N 53°06' E 008°44'0 0.0
2017-Mar-24 06:32N 53°06' E 008°44'0 0.0
2017-Mar-24 05:32N 53°06' E 008°44'0 0.0
2017-Mar-24 04:31N 53°06' E 008°44'0 0.0
2017-Mar-24 03:31N 53°06' E 008°44'0 0.0
2017-Mar-24 02:33N 53°06' E 008°44'0 0.0
2017-Mar-24 01:33N 53°06' E 008°44'1 1.0
2017-Mar-24 00:33N 53°07' E 008°44'8 7.7
2017-Mar-23 23:33N 53°11' E 008°33'9 9.4
2017-Mar-23 22:33N 53°20' E 008°30'1110.8
2017-Mar-23 21:33N 53°31' E 008°32'9 9.5
2017-Mar-23 20:34N 53°39' E 008°24'1413.8
2017-Mar-23 19:33N 53°49' E 008°07'1311.8
2017-Mar-23 18:28N 53°53' E 007°46'12312.3
2017-Mar-23 08:27N 53°10' E 004°33'1213.1
2017-Mar-23 07:32N 52°60' E 004°22'1212.6
2017-Mar-23 06:33N 52°49' E 004°12'1312.7
2017-Mar-23 05:33N 52°38' E 004°02'1312.6
2017-Mar-23 04:33N 52°27' E 003°54'1212.6
2017-Mar-23 03:34N 52°14' E 003°53'1211.8
2017-Mar-23 02:34N 52°02' E 003°54'1414.0
2017-Mar-23 01:34N 51°55' E 004°14'7 7.4
2017-Mar-23 00:33N 51°51' E 004°23'6 6.3
2017-Mar-22 23:33N 51°50' E 004°33'5 5.1
2017-Mar-22 22:33N 51°45' E 004°38'4 4.2
2017-Mar-22 21:33N 51°41' E 004°36'0 0.0
2017-Mar-22 20:27N 51°41' E 004°36'0 0.0
2017-Mar-22 19:09N 51°41' E 004°36'0 0.0
2017-Mar-22 18:21N 51°41' E 004°36'0 0.0
2017-Mar-22 16:17N 51°41' E 004°36'0 0.0
2017-Mar-22 14:16N 51°41' E 004°36'0 0.0
2017-Mar-22 13:31N 51°41' E 004°36'0 0.0
2017-Mar-22 11:33N 51°41' E 004°36'0 0.0
2017-Mar-22 09:29N 51°41' E 004°36'0 0.0
2017-Mar-22 07:28N 51°41' E 004°36'0 0.0
2017-Mar-22 06:27N 51°41' E 004°36'0 0.0
2017-Mar-22 05:24N 51°41' E 004°36'0 0.0
2017-Mar-22 04:27N 51°41' E 004°36'0 0.0
2017-Mar-22 03:32N 51°41' E 004°36'0 0.0
2017-Mar-22 02:32N 51°41' E 004°36'0 0.0
2017-Mar-22 00:22N 51°41' E 004°36'0 0.0
2017-Mar-21 23:33N 51°41' E 004°36'0 0.0
2017-Mar-21 20:26N 51°41' E 004°36'0 0.0
2017-Mar-21 19:23N 51°41' E 004°36'0 0.0
2017-Mar-21 18:29N 51°41' E 004°36'0 0.0
2017-Mar-21 17:19N 51°41' E 004°36'0 0.0
2017-Mar-21 15:30N 51°41' E 004°36'0 0.0
2017-Mar-21 14:33N 51°41' E 004°36'0 0.0
2017-Mar-21 13:17N 51°41' E 004°36'0 0.0
2017-Mar-21 12:26N 51°41' E 004°36'0 0.0
2017-Mar-21 10:25N 51°41' E 004°36'0 0.0
2017-Mar-21 09:07N 51°41' E 004°36'0 0.0
2017-Mar-21 08:33N 51°41' E 004°36'0 0.5
2017-Mar-21 07:31N 51°41' E 004°36'7 7.0
2017-Mar-21 06:34N 51°48' E 004°37'1010.4
2017-Mar-21 05:33N 51°51' E 004°21'9 9.1
2017-Mar-21 04:33N 51°57' E 004°10'1212.4
2017-Mar-21 03:33N 52°00' E 003°50'5 1.8
2017-Mar-21 00:31N 51°57' E 003°43'0 0.1
2017-Mar-20 23:27N 51°57' E 003°43'0 0.2
2017-Mar-20 22:33N 51°57' E 003°43'7 1.1
2017-Mar-20 16:26N 51°54' E 003°33'0 0.0
2017-Mar-20 15:32N 51°54' E 003°33'0 0.0
2017-Mar-20 14:32N 51°54' E 003°33'0 0.0
2017-Mar-20 02:15N 51°54' E 003°33'0 0.0
2017-Mar-19 01:28N 51°54' E 003°33'1 0.0
2017-Mar-17 22:23N 51°55' E 003°34'1010.2
2017-Mar-17 21:25N 51°51' E 003°19'2111.3
2017-Mar-17 19:33N 51°30' E 003°28'1210.9
2017-Mar-17 18:27N 51°23' E 003°43'17 8.5
2017-Mar-17 16:28N 51°23' E 004°10'7 7.9
2017-Mar-17 15:33N 51°18' E 004°18'2 2.0
2017-Mar-17 14:33N 51°17' E 004°20'1 1.4
2017-Mar-17 13:33N 51°16' E 004°21'2 1.8
2017-Mar-17 12:32N 51°15' E 004°24'0 0.0
2017-Mar-17 11:25N 51°15' E 004°24'0 0.0
2017-Mar-17 10:31N 51°15' E 004°24'0 0.0
2017-Mar-17 09:33N 51°15' E 004°24'0 0.0
2017-Mar-17 08:33N 51°15' E 004°24'0 0.0
2017-Mar-17 07:32N 51°15' E 004°24'0 0.0
2017-Mar-17 06:32N 51°15' E 004°24'0 0.0
2017-Mar-17 05:32N 51°15' E 004°24'0 0.0
2017-Mar-17 04:31N 51°15' E 004°24'0 0.0
2017-Mar-17 03:31N 51°15' E 004°24'0 0.0
2017-Mar-17 02:33N 51°15' E 004°24'0 0.0
2017-Mar-17 01:33N 51°15' E 004°24'0 0.0
2017-Mar-17 00:32N 51°15' E 004°24'0 0.0
2017-Mar-16 23:32N 51°15' E 004°24'0 0.0
2017-Mar-16 22:32N 51°15' E 004°24'0 0.0
2017-Mar-16 21:28N 51°15' E 004°24'0 0.0
2017-Mar-16 20:28N 51°15' E 004°24'0 0.0
2017-Mar-16 19:33N 51°15' E 004°24'0 0.0
2017-Mar-16 18:33N 51°15' E 004°24'0 0.0
2017-Mar-16 17:32N 51°15' E 004°24'0 0.0
2017-Mar-16 16:32N 51°15' E 004°24'0 0.0
2017-Mar-16 15:32N 51°15' E 004°24'0 0.0
2017-Mar-16 14:31N 51°15' E 004°24'0 0.0
2017-Mar-16 13:31N 51°15' E 004°24'0 0.0
2017-Mar-16 12:33N 51°15' E 004°24'0 0.0
2017-Mar-16 11:33N 51°15' E 004°24'0 0.0
2017-Mar-16 10:32N 51°15' E 004°24'0 0.0
2017-Mar-16 09:32N 51°15' E 004°24'0 0.0
2017-Mar-16 08:32N 51°15' E 004°24'0 0.0
2017-Mar-16 07:31N 51°15' E 004°24'0 0.0
2017-Mar-16 06:31N 51°15' E 004°24'0 0.0
2017-Mar-16 05:33N 51°15' E 004°24'0 0.0
2017-Mar-16 04:33N 51°15' E 004°24'0 0.0
2017-Mar-16 03:29N 51°15' E 004°24'0 0.0
2017-Mar-16 02:32N 51°15' E 004°24'0 0.0
2017-Mar-16 01:32N 51°15' E 004°24'0 0.0
2017-Mar-16 00:31N 51°15' E 004°24'0 0.0
2017-Mar-15 23:31N 51°15' E 004°24'0 0.0
2017-Mar-15 22:33N 51°15' E 004°24'0 0.0
2017-Mar-15 21:33N 51°15' E 004°24'0 0.0
2017-Mar-15 20:32N 51°15' E 004°24'0 0.0
2017-Mar-15 19:32N 51°15' E 004°24'0 0.0
2017-Mar-15 18:29N 51°15' E 004°24'0 0.0
2017-Mar-15 17:31N 51°15' E 004°24'0 0.0
2017-Mar-15 16:31N 51°15' E 004°24'0 0.0
2017-Mar-15 15:33N 51°15' E 004°24'0 0.0
2017-Mar-15 14:33N 51°15' E 004°24'1 1.2
2017-Mar-15 13:33N 51°15' E 004°22'2 2.1
2017-Mar-15 12:31N 51°17' E 004°21'0 0.0
2017-Mar-15 11:28N 51°17' E 004°21'0 0.0
2017-Mar-15 10:33N 51°17' E 004°21'0 0.0
2017-Mar-15 09:27N 51°17' E 004°21'0 0.1
2017-Mar-15 08:33N 51°17' E 004°21'0 0.0
2017-Mar-15 07:33N 51°17' E 004°21'0 0.0
2017-Mar-15 06:31N 51°17' E 004°21'0 0.0
2017-Mar-15 05:30N 51°17' E 004°21'0 0.0
2017-Mar-15 04:32N 51°17' E 004°21'0 0.0
2017-Mar-15 03:32N 51°17' E 004°21'0 0.0
2017-Mar-15 02:31N 51°17' E 004°21'0 0.0
2017-Mar-15 01:31N 51°17' E 004°21'0 0.0
2017-Mar-15 00:31N 51°17' E 004°21'0 0.0
2017-Mar-14 23:30N 51°17' E 004°21'0 0.0
2017-Mar-14 22:33N 51°17' E 004°21'0 0.0
2017-Mar-14 21:32N 51°17' E 004°21'0 0.0
2017-Mar-14 20:32N 51°17' E 004°21'  
Track history (hours):
 
Tides and Currents Weather Stations Pressure Air Temp Water Temp Dewpoint Dewpoint Depression Visibility Wind Speed Wind Dir Waves Ship Positions

Normed Antwerpen

Last reported at 2017-Mar-24 19:32 UTC. Time now 2017-Mar-24 20:07 UTC.
Position N 53°06' E 008°44'.

Length 130 m; draft 6.2 m.

Type: Ship. MMSI: 305210993.

Date/timePositionNaut miles runAvg speedWind from/ knotsBaromVisibWave heightAir tempDewpointWater temp
2017-Mar-24 19:32N 53°06' E 008°44'0 0.0
2017-Mar-24 18:31N 53°06' E 008°44'0 0.0
2017-Mar-24 17:31N 53°06' E 008°44'0 0.0
2017-Mar-24 16:33N 53°06' E 008°44'0 0.0
2017-Mar-24 15:33N 53°06' E 008°44'0 0.0
2017-Mar-24 14:33N 53°06' E 008°44'0 0.0
2017-Mar-24 13:32N 53°06' E 008°44'0 0.0
2017-Mar-24 12:32N 53°06' E 008°44'0 0.0
2017-Mar-24 11:31N 53°06' E 008°44'0 0.0
2017-Mar-24 10:31N 53°06' E 008°44'0 0.0
2017-Mar-24 09:33N 53°06' E 008°44'0 0.0
2017-Mar-24 08:33N 53°06' E 008°44'0 0.0
2017-Mar-24 07:29N 53°06' E 008°44'0 0.0
2017-Mar-24 06:32N 53°06' E 008°44'0 0.0
2017-Mar-24 05:32N 53°06' E 008°44'0 0.0
2017-Mar-24 04:31N 53°06' E 008°44'0 0.0
2017-Mar-24 03:31N 53°06' E 008°44'0 0.0
2017-Mar-24 02:33N 53°06' E 008°44'0 0.0
2017-Mar-24 01:33N 53°06' E 008°44'1 1.0
2017-Mar-24 00:33N 53°07' E 008°44'8 7.7
2017-Mar-23 23:33N 53°11' E 008°33'9 9.4
2017-Mar-23 22:33N 53°20' E 008°30'1110.8
2017-Mar-23 21:33N 53°31' E 008°32'9 9.5
2017-Mar-23 20:34N 53°39' E 008°24'1413.8
2017-Mar-23 19:33N 53°49' E 008°07'1311.8
2017-Mar-23 18:28N 53°53' E 007°46'12312.3
2017-Mar-23 08:27N 53°10' E 004°33'1213.1
2017-Mar-23 07:32N 52°60' E 004°22'1212.6
2017-Mar-23 06:33N 52°49' E 004°12'1312.7
2017-Mar-23 05:33N 52°38' E 004°02'1312.6
2017-Mar-23 04:33N 52°27' E 003°54'1212.6
2017-Mar-23 03:34N 52°14' E 003°53'1211.8
2017-Mar-23 02:34N 52°02' E 003°54'1414.0
2017-Mar-23 01:34N 51°55' E 004°14'7 7.4
2017-Mar-23 00:33N 51°51' E 004°23'6 6.3
2017-Mar-22 23:33N 51°50' E 004°33'5 5.1
2017-Mar-22 22:33N 51°45' E 004°38'4 4.2
2017-Mar-22 21:33N 51°41' E 004°36'0 0.0
2017-Mar-22 20:27N 51°41' E 004°36'0 0.0
2017-Mar-22 19:09N 51°41' E 004°36'0 0.0
2017-Mar-22 18:21N 51°41' E 004°36'0 0.0
2017-Mar-22 16:17N 51°41' E 004°36'0 0.0
2017-Mar-22 14:16N 51°41' E 004°36'0 0.0
2017-Mar-22 13:31N 51°41' E 004°36'0 0.0
2017-Mar-22 11:33N 51°41' E 004°36'0 0.0
2017-Mar-22 09:29N 51°41' E 004°36'0 0.0
2017-Mar-22 07:28N 51°41' E 004°36'0 0.0
2017-Mar-22 06:27N 51°41' E 004°36'0 0.0
2017-Mar-22 05:24N 51°41' E 004°36'0 0.0
2017-Mar-22 04:27N 51°41' E 004°36'0 0.0
2017-Mar-22 03:32N 51°41' E 004°36'0 0.0
2017-Mar-22 02:32N 51°41' E 004°36'0 0.0
2017-Mar-22 00:22N 51°41' E 004°36'0 0.0
2017-Mar-21 23:33N 51°41' E 004°36'0 0.0
2017-Mar-21 20:26N 51°41' E 004°36'0 0.0
2017-Mar-21 19:23N 51°41' E 004°36'0 0.0
2017-Mar-21 18:29N 51°41' E 004°36'0 0.0
2017-Mar-21 17:19N 51°41' E 004°36'0 0.0
2017-Mar-21 15:30N 51°41' E 004°36'0 0.0
2017-Mar-21 14:33N 51°41' E 004°36'0 0.0
2017-Mar-21 13:17N 51°41' E 004°36'0 0.0
2017-Mar-21 12:26N 51°41' E 004°36'0 0.0
2017-Mar-21 10:25N 51°41' E 004°36'0 0.0
2017-Mar-21 09:07N 51°41' E 004°36'0 0.0
2017-Mar-21 08:33N 51°41' E 004°36'0 0.5
2017-Mar-21 07:31N 51°41' E 004°36'7 7.0
2017-Mar-21 06:34N 51°48' E 004°37'1010.4
2017-Mar-21 05:33N 51°51' E 004°21'9 9.1
2017-Mar-21 04:33N 51°57' E 004°10'1212.4
2017-Mar-21 03:33N 52°00' E 003°50'5 1.8
2017-Mar-21 00:31N 51°57' E 003°43'0 0.1
2017-Mar-20 23:27N 51°57' E 003°43'0 0.2
2017-Mar-20 22:33N 51°57' E 003°43'7 1.1
2017-Mar-20 16:26N 51°54' E 003°33'0 0.0
2017-Mar-20 15:32N 51°54' E 003°33'0 0.0
2017-Mar-20 14:32N 51°54' E 003°33'0 0.0
2017-Mar-20 02:15N 51°54' E 003°33'0 0.0
2017-Mar-19 01:28N 51°54' E 003°33'1 0.0
2017-Mar-17 22:23N 51°55' E 003°34'1010.2
2017-Mar-17 21:25N 51°51' E 003°19'2111.3
2017-Mar-17 19:33N 51°30' E 003°28'1210.9
2017-Mar-17 18:27N 51°23' E 003°43'17 8.5
2017-Mar-17 16:28N 51°23' E 004°10'7 7.9
2017-Mar-17 15:33N 51°18' E 004°18'2 2.0
2017-Mar-17 14:33N 51°17' E 004°20'1 1.4
2017-Mar-17 13:33N 51°16' E 004°21'2 1.8
2017-Mar-17 12:32N 51°15' E 004°24'0 0.0
2017-Mar-17 11:25N 51°15' E 004°24'0 0.0
2017-Mar-17 10:31N 51°15' E 004°24'0 0.0
2017-Mar-17 09:33N 51°15' E 004°24'0 0.0
2017-Mar-17 08:33N 51°15' E 004°24'0 0.0
2017-Mar-17 07:32N 51°15' E 004°24'0 0.0
2017-Mar-17 06:32N 51°15' E 004°24'0 0.0
2017-Mar-17 05:32N 51°15' E 004°24'0 0.0
2017-Mar-17 04:31N 51°15' E 004°24'0 0.0
2017-Mar-17 03:31N 51°15' E 004°24'0 0.0
2017-Mar-17 02:33N 51°15' E 004°24'0 0.0
2017-Mar-17 01:33N 51°15' E 004°24'0 0.0
2017-Mar-17 00:32N 51°15' E 004°24'0 0.0
2017-Mar-16 23:32N 51°15' E 004°24'0 0.0
2017-Mar-16 22:32N 51°15' E 004°24'0 0.0
2017-Mar-16 21:28N 51°15' E 004°24'0 0.0
2017-Mar-16 20:28N 51°15' E 004°24'0 0.0
2017-Mar-16 19:33N 51°15' E 004°24'0 0.0
2017-Mar-16 18:33N 51°15' E 004°24'0 0.0
2017-Mar-16 17:32N 51°15' E 004°24'0 0.0
2017-Mar-16 16:32N 51°15' E 004°24'0 0.0
2017-Mar-16 15:32N 51°15' E 004°24'0 0.0
2017-Mar-16 14:31N 51°15' E 004°24'0 0.0
2017-Mar-16 13:31N 51°15' E 004°24'0 0.0
2017-Mar-16 12:33N 51°15' E 004°24'0 0.0
2017-Mar-16 11:33N 51°15' E 004°24'0 0.0
2017-Mar-16 10:32N 51°15' E 004°24'0 0.0
2017-Mar-16 09:32N 51°15' E 004°24'0 0.0
2017-Mar-16 08:32N 51°15' E 004°24'0 0.0
2017-Mar-16 07:31N 51°15' E 004°24'0 0.0
2017-Mar-16 06:31N 51°15' E 004°24'0 0.0
2017-Mar-16 05:33N 51°15' E 004°24'0 0.0
2017-Mar-16 04:33N 51°15' E 004°24'0 0.0
2017-Mar-16 03:29N 51°15' E 004°24'0 0.0
2017-Mar-16 02:32N 51°15' E 004°24'0 0.0
2017-Mar-16 01:32N 51°15' E 004°24'0 0.0
2017-Mar-16 00:31N 51°15' E 004°24'0 0.0
2017-Mar-15 23:31N 51°15' E 004°24'0 0.0
2017-Mar-15 22:33N 51°15' E 004°24'0 0.0
2017-Mar-15 21:33N 51°15' E 004°24'0 0.0
2017-Mar-15 20:32N 51°15' E 004°24'0 0.0
2017-Mar-15 19:32N 51°15' E 004°24'0 0.0
2017-Mar-15 18:29N 51°15' E 004°24'0 0.0
2017-Mar-15 17:31N 51°15' E 004°24'0 0.0
2017-Mar-15 16:31N 51°15' E 004°24'0 0.0
2017-Mar-15 15:33N 51°15' E 004°24'0 0.0
2017-Mar-15 14:33N 51°15' E 004°24'1 1.2
2017-Mar-15 13:33N 51°15' E 004°22'2 2.1
2017-Mar-15 12:31N 51°17' E 004°21'0 0.0
2017-Mar-15 11:28N 51°17' E 004°21'0 0.0
2017-Mar-15 10:33N 51°17' E 004°21'0 0.0
2017-Mar-15 09:27N 51°17' E 004°21'0 0.1
2017-Mar-15 08:33N 51°17' E 004°21'0 0.0
2017-Mar-15 07:33N 51°17' E 004°21'0 0.0
2017-Mar-15 06:31N 51°17' E 004°21'0 0.0
2017-Mar-15 05:30N 51°17' E 004°21'0 0.0
2017-Mar-15 04:32N 51°17' E 004°21'0 0.0
2017-Mar-15 03:32N 51°17' E 004°21'0 0.0
2017-Mar-15 02:31N 51°17' E 004°21'0 0.0
2017-Mar-15 01:31N 51°17' E 004°21'0 0.0
2017-Mar-15 00:31N 51°17' E 004°21'0 0.0
2017-Mar-14 23:30N 51°17' E 004°21'0 0.0
2017-Mar-14 22:33N 51°17' E 004°21'0 0.0
2017-Mar-14 21:32N 51°17' E 004°21'0 0.0
2017-Mar-14 20:32N 51°17' E 004°21'  

Dump ship's entire track history